createdAt,value
2022-11-16T00:02:20.855Z,18.67
2022-11-16T00:04:47.645Z,20.83
2022-11-16T00:07:14.412Z,20.10
2022-11-16T00:09:41.084Z,18.80
2022-11-16T00:12:10.694Z,19.30
2022-11-16T00:14:37.764Z,18.80
2022-11-16T00:17:04.470Z,19.67
2022-11-16T00:19:31.249Z,19.43
2022-11-16T00:21:58.073Z,19.10
2022-11-16T00:24:24.879Z,19.00
2022-11-16T00:26:53.974Z,19.53
2022-11-16T00:29:23.075Z,18.73
2022-11-16T00:31:50.285Z,18.57
2022-11-16T00:34:20.044Z,18.00
2022-11-16T00:36:46.977Z,18.70
2022-11-16T00:39:14.779Z,19.67
2022-11-16T00:41:44.874Z,19.23
2022-11-16T00:44:12.700Z,19.07
2022-11-16T00:46:40.153Z,18.57
2022-11-16T00:49:07.283Z,18.83
2022-11-16T00:51:35.320Z,19.40
2022-11-16T00:54:02.564Z,18.73
2022-11-16T00:56:29.163Z,17.33
2022-11-16T00:58:55.876Z,19.13
2022-11-16T01:01:22.742Z,18.97
2022-11-16T01:03:49.582Z,17.97
2022-11-16T01:06:20.309Z,18.90
2022-11-16T01:08:47.050Z,19.17
2022-11-16T01:11:33.480Z,20.33
2022-11-16T01:14:02.433Z,18.57
2022-11-16T01:16:29.696Z,19.20
2022-11-16T01:18:56.470Z,17.67
2022-11-16T01:21:24.759Z,20.53
2022-11-16T01:23:52.146Z,18.60
2022-11-16T01:26:19.075Z,19.73
2022-11-16T01:28:45.731Z,18.70
2022-11-16T01:31:12.687Z,19.27
2022-11-16T01:33:39.332Z,18.10
2022-11-16T01:36:14.806Z,19.23
2022-11-16T01:38:46.422Z,19.77
2022-11-16T01:41:14.517Z,19.13
2022-11-16T01:43:59.787Z,19.07
2022-11-16T01:46:27.717Z,18.63
2022-11-16T01:49:06.817Z,18.70
2022-11-16T01:51:34.157Z,19.90
2022-11-16T01:54:03.252Z,19.10
2022-11-16T01:56:31.258Z,18.83
2022-11-16T01:58:58.001Z,20.20
2022-11-16T02:01:24.665Z,21.03
2022-11-16T02:03:51.307Z,20.57
2022-11-16T02:06:27.022Z,19.97
2022-11-16T02:09:24.623Z,20.40
2022-11-16T02:12:28.872Z,18.93
2022-11-16T02:15:02.422Z,20.77
2022-11-16T02:18:26.385Z,20.33
2022-11-16T02:21:10.386Z,20.37
2022-11-16T02:24:01.728Z,21.92
2022-11-16T02:26:50.403Z,20.43
2022-11-16T02:29:47.734Z,22.90
2022-11-16T02:32:32.989Z,21.00
2022-11-16T02:35:24.353Z,21.93
2022-11-16T02:37:56.373Z,19.90
2022-11-16T02:40:24.754Z,22.17
2022-11-16T02:42:54.867Z,21.57
2022-11-16T02:45:30.319Z,21.27
2022-11-16T02:48:01.278Z,21.30
2022-11-16T02:50:28.650Z,22.00
2022-11-16T02:52:55.767Z,22.40
2022-11-16T02:55:24.022Z,23.30
2022-11-16T02:57:56.025Z,23.67
2022-11-16T03:00:25.416Z,20.63
2022-11-16T03:03:13.849Z,24.03
2022-11-16T03:05:55.280Z,24.07
2022-11-16T03:08:26.115Z,24.27
2022-11-16T03:11:20.681Z,22.53
2022-11-16T03:13:48.707Z,20.92
2022-11-16T03:16:20.284Z,25.10
2022-11-16T03:18:48.197Z,23.50
2022-11-16T03:21:30.534Z,25.37
2022-11-16T03:23:57.695Z,26.33
2022-11-16T03:26:28.075Z,24.07
2022-11-16T03:29:02.968Z,24.83
2022-11-16T03:31:39.393Z,22.70
2022-11-16T03:34:10.888Z,26.67
2022-11-16T03:36:40.760Z,27.27
2022-11-16T03:39:12.176Z,28.93
2022-11-16T03:41:41.792Z,24.40
2022-11-16T03:44:10.880Z,27.00
2022-11-16T03:46:38.542Z,24.67
2022-11-16T03:49:06.232Z,27.03
2022-11-16T03:51:33.305Z,27.77
2022-11-16T03:54:00.117Z,28.30
2022-11-16T03:56:26.872Z,25.77
2022-11-16T03:58:53.639Z,28.77
2022-11-16T04:01:20.271Z,27.93
2022-11-16T04:03:46.928Z,33.13
2022-11-16T04:06:32.415Z,29.03
2022-11-16T04:09:28.041Z,29.23
2022-11-16T04:12:13.297Z,31.10
2022-11-16T04:14:59.118Z,30.43
2022-11-16T04:17:44.442Z,29.43
2022-11-16T04:20:31.791Z,30.80
2022-11-16T04:23:20.901Z,29.83
2022-11-16T04:25:48.678Z,29.90
2022-11-16T04:28:16.762Z,30.70
2022-11-16T04:31:09.399Z,30.67
2022-11-16T04:33:54.603Z,30.43
2022-11-16T04:36:39.990Z,30.83
2022-11-16T04:39:07.130Z,31.97
2022-11-16T04:41:52.417Z,30.00
2022-11-16T04:44:19.425Z,30.50
2022-11-16T04:47:04.575Z,29.60
2022-11-16T04:49:31.160Z,29.93
2022-11-16T04:51:57.828Z,28.70
2022-11-16T04:54:24.434Z,28.13
2022-11-16T04:56:51.044Z,28.37
2022-11-16T04:59:17.658Z,28.60
2022-11-16T05:02:02.867Z,30.17
2022-11-16T05:04:29.564Z,28.97
2022-11-16T05:06:56.309Z,26.07
2022-11-16T05:09:23.112Z,25.33
2022-11-16T05:11:50.429Z,27.43
2022-11-16T05:14:17.049Z,25.63
2022-11-16T05:16:43.801Z,23.73
2022-11-16T05:19:29.152Z,25.63
2022-11-16T05:21:55.751Z,25.13
2022-11-16T05:24:34.308Z,23.37
2022-11-16T05:27:06.198Z,23.97
2022-11-16T05:29:33.202Z,23.00
2022-11-16T05:32:00.589Z,25.30
2022-11-16T05:34:27.575Z,23.83
2022-11-16T05:36:54.548Z,24.23
2022-11-16T05:39:21.433Z,24.67
2022-11-16T05:41:48.285Z,22.20
2022-11-16T05:44:15.461Z,23.50
2022-11-16T05:46:42.587Z,22.17
2022-11-16T05:49:09.861Z,22.63
2022-11-16T05:51:36.932Z,22.37
2022-11-16T05:54:04.387Z,23.10
2022-11-16T05:56:31.670Z,22.80
2022-11-16T05:58:58.375Z,22.97
2022-11-16T06:01:25.482Z,25.20
2022-11-16T06:03:52.601Z,23.60
2022-11-16T06:06:20.331Z,25.17
2022-11-16T06:08:47.216Z,23.83
2022-11-16T06:11:14.055Z,24.10
2022-11-16T06:13:40.616Z,24.30
2022-11-16T06:16:07.584Z,23.57
2022-11-16T06:18:37.683Z,25.67
2022-11-16T06:21:04.413Z,24.63
2022-11-16T06:23:31.002Z,24.30
2022-11-16T06:25:57.640Z,27.03
2022-11-16T06:28:24.427Z,25.10
2022-11-16T06:30:51.125Z,24.67
2022-11-16T06:33:18.090Z,25.60
2022-11-16T06:35:45.019Z,26.03
2022-11-16T06:38:13.764Z,25.30
2022-11-16T06:40:40.419Z,23.67
2022-11-16T06:43:07.019Z,25.33
2022-11-16T06:45:33.682Z,23.47
2022-11-16T06:48:00.344Z,25.33
2022-11-16T06:50:26.997Z,25.17
2022-11-16T06:52:54.040Z,25.47
2022-11-16T06:55:20.739Z,23.73
2022-11-16T06:57:47.430Z,24.17
2022-11-16T07:00:14.792Z,23.00
2022-11-16T07:02:41.458Z,22.27
2022-11-16T07:05:08.387Z,21.87
2022-11-16T07:07:35.030Z,21.70
2022-11-16T07:10:01.985Z,21.67
2022-11-16T07:12:28.643Z,22.83
2022-11-16T07:14:55.261Z,20.83
2022-11-16T07:17:21.981Z,20.90
2022-11-16T07:19:48.577Z,20.50
2022-11-16T07:22:15.267Z,20.13
2022-11-16T07:24:41.825Z,19.33
2022-11-16T07:27:08.915Z,21.07
2022-11-16T07:29:35.589Z,20.47
2022-11-16T07:32:02.195Z,20.80
2022-11-16T07:34:28.837Z,21.53
2022-11-16T07:36:55.574Z,20.00
2022-11-16T07:39:22.238Z,22.90
2022-11-16T07:41:52.969Z,20.77
2022-11-16T07:44:20.270Z,19.90
2022-11-16T07:46:48.099Z,21.23
2022-11-16T07:49:16.623Z,20.57
2022-11-16T07:51:43.296Z,20.97
2022-11-16T07:54:13.903Z,20.73
2022-11-16T07:56:40.968Z,19.97
2022-11-16T07:59:07.974Z,21.87
2022-11-16T08:01:34.681Z,20.90
2022-11-16T08:04:04.277Z,21.20
2022-11-16T08:06:31.573Z,19.83
2022-11-16T08:08:59.076Z,18.83
2022-11-16T08:11:26.124Z,18.47
2022-11-16T08:13:56.094Z,18.87
2022-11-16T08:16:23.104Z,19.30
2022-11-16T08:18:49.827Z,18.60
2022-11-16T08:21:18.395Z,19.90
2022-11-16T08:23:45.501Z,18.93
2022-11-16T08:26:15.338Z,18.60
2022-11-16T08:28:43.584Z,20.03
2022-11-16T08:31:12.815Z,19.83
2022-11-16T08:33:39.765Z,18.03
2022-11-16T08:36:13.821Z,17.60
2022-11-16T08:38:40.954Z,18.70
2022-11-16T08:41:07.750Z,18.27
2022-11-16T08:43:35.877Z,18.67
2022-11-16T08:46:03.240Z,19.23
2022-11-16T08:48:29.953Z,17.67
2022-11-16T08:51:16.854Z,18.23
2022-11-16T08:53:44.479Z,18.67
2022-11-16T08:56:13.306Z,18.80
2022-11-16T08:58:43.475Z,16.97
2022-11-16T09:01:11.924Z,16.73
2022-11-16T09:03:38.955Z,18.23
2022-11-16T09:06:06.603Z,18.37
2022-11-16T09:08:33.829Z,17.17
2022-11-16T09:11:04.390Z,18.03
2022-11-16T09:13:31.033Z,17.70
2022-11-16T09:16:01.536Z,16.70
2022-11-16T09:18:28.947Z,18.07
2022-11-16T09:20:55.780Z,16.17
2022-11-16T09:23:25.611Z,16.40
2022-11-16T09:25:53.162Z,17.13
2022-11-16T09:28:20.468Z,16.17
2022-11-16T09:30:49.161Z,15.00
2022-11-16T09:33:16.134Z,17.13
2022-11-16T09:35:42.728Z,19.63
2022-11-16T09:38:17.567Z,15.73
2022-11-16T09:40:48.697Z,15.50
2022-11-16T09:43:46.068Z,15.70
2022-11-16T09:46:34.512Z,16.17
2022-11-16T09:49:03.999Z,15.13
2022-11-16T09:51:32.853Z,15.83
2022-11-16T09:54:06.075Z,15.93
2022-11-16T09:56:37.519Z,14.70
2022-11-16T09:59:18.170Z,14.40
2022-11-16T10:01:48.999Z,14.67
2022-11-16T10:04:58.128Z,14.23
2022-11-16T10:07:42.533Z,13.07
2022-11-16T10:10:17.002Z,13.45
2022-11-16T10:12:54.895Z,14.40
2022-11-16T10:15:26.718Z,14.93
2022-11-16T10:17:56.299Z,12.77
2022-11-16T10:20:54.871Z,11.83
2022-11-16T10:23:37.370Z,12.53
2022-11-16T10:26:27.356Z,10.30
2022-11-16T10:29:11.385Z,11.73
2022-11-16T10:32:02.192Z,11.93
2022-11-16T10:34:33.353Z,12.73
2022-11-16T10:37:03.882Z,12.10
2022-11-16T10:39:31.659Z,10.70
2022-11-16T10:42:07.114Z,10.87
2022-11-16T10:44:38.868Z,12.17
2022-11-16T10:47:33.585Z,10.40
2022-11-16T10:50:04.063Z,11.27
2022-11-16T10:52:30.761Z,11.07
2022-11-16T10:54:57.356Z,11.63
2022-11-16T10:57:26.549Z,10.57
2022-11-16T10:59:58.995Z,10.50
2022-11-16T11:02:35.993Z,10.50
2022-11-16T11:05:22.747Z,10.47
2022-11-16T11:08:02.198Z,11.57
2022-11-16T11:10:31.762Z,11.00
2022-11-16T11:13:11.937Z,10.83
2022-11-16T11:15:40.323Z,11.67
2022-11-16T11:18:23.529Z,11.17
2022-11-16T11:21:06.333Z,12.07
2022-11-16T11:23:42.667Z,11.10
2022-11-16T11:26:24.915Z,11.30
2022-11-16T11:28:51.628Z,17.90
2022-11-16T11:31:26.227Z,11.13
2022-11-16T11:33:59.597Z,11.47
2022-11-16T11:36:28.988Z,38.67
2022-11-16T11:39:05.222Z,11.77
2022-11-16T11:41:43.681Z,11.33
2022-11-16T11:44:13.161Z,11.47
2022-11-16T11:47:18.618Z,12.10
2022-11-16T11:49:36.168Z,13.73
2022-11-16T11:52:09.237Z,12.23
2022-11-16T11:54:43.149Z,11.93
2022-11-16T11:57:15.711Z,11.77
2022-11-16T11:59:42.340Z,16.67
2022-11-16T12:02:39.902Z,11.67
2022-11-16T12:05:44.010Z,11.17
2022-11-16T12:08:38.612Z,12.57
2022-11-16T12:11:29.710Z,10.50
2022-11-16T12:14:22.420Z,10.73
2022-11-16T12:17:07.374Z,11.73
2022-11-16T12:20:07.533Z,11.80
2022-11-16T12:22:37.032Z,10.13
2022-11-16T12:25:19.793Z,9.70
2022-11-16T12:28:15.144Z,10.67
2022-11-16T12:30:57.834Z,10.40
2022-11-16T12:33:36.902Z,10.70
2022-11-16T12:36:17.801Z,10.43
2022-11-16T12:38:59.874Z,9.70
2022-11-16T12:41:26.396Z,9.50
2022-11-16T12:44:01.086Z,9.13
2022-11-16T12:46:58.418Z,9.73
2022-11-16T12:49:44.667Z,8.77
2022-11-16T12:52:11.314Z,8.27
2022-11-16T12:55:11.042Z,8.37
2022-11-16T12:58:02.871Z,8.25
2022-11-16T13:00:35.379Z,8.07
2022-11-16T13:03:10.188Z,6.60
2022-11-16T13:05:42.869Z,7.27
2022-11-16T13:08:36.269Z,7.50
2022-11-16T13:11:19.890Z,6.80
2022-11-16T13:13:53.394Z,6.93
2022-11-16T13:16:21.527Z,7.47
2022-11-16T13:18:48.317Z,7.20
2022-11-16T13:21:22.261Z,6.37
2022-11-16T13:24:16.946Z,5.80
2022-11-16T13:26:54.760Z,6.68
2022-11-16T13:29:43.393Z,6.17
2022-11-16T13:32:25.857Z,6.07
2022-11-16T13:34:52.972Z,5.63
2022-11-16T13:37:39.512Z,5.60
2022-11-16T13:40:06.117Z,5.83
2022-11-16T13:42:40.554Z,5.50
2022-11-16T13:45:19.627Z,5.77
2022-11-16T13:47:50.873Z,6.20
2022-11-16T13:50:20.002Z,6.87
2022-11-16T13:55:55.525Z,6.73
2022-11-16T13:58:23.657Z,5.83
2022-11-16T14:01:14.350Z,5.40
2022-11-16T14:03:51.729Z,4.80
2022-11-16T14:06:24.360Z,6.03
2022-11-16T14:08:55.392Z,5.63
2022-11-16T14:11:38.854Z,5.57
2022-11-16T14:14:10.133Z,4.83
2022-11-16T14:16:44.639Z,121.57
2022-11-16T14:19:49.289Z,31.43
2022-11-16T14:22:42.011Z,10.52
2022-11-16T14:25:22.728Z,4.90
2022-11-16T14:28:18.406Z,5.93
2022-11-16T14:31:07.808Z,5.40
2022-11-16T14:33:36.433Z,5.77
2022-11-16T14:36:05.152Z,6.17
2022-11-16T14:38:39.540Z,6.13
2022-11-16T14:41:10.877Z,5.10
2022-11-16T14:43:43.584Z,4.90
2022-11-16T14:46:20.620Z,5.43
2022-11-16T14:48:48.059Z,5.00
2022-11-16T14:51:24.750Z,4.80
2022-11-16T14:53:58.852Z,5.73
2022-11-16T14:56:25.518Z,4.65
2022-11-16T14:58:59.916Z,5.60
2022-11-16T15:01:31.907Z,5.87
2022-11-16T15:04:02.585Z,5.07
2022-11-16T15:06:41.210Z,5.37
2022-11-16T15:09:16.029Z,5.87
2022-11-16T15:12:01.908Z,5.43
2022-11-16T15:14:31.223Z,4.47
2022-11-16T15:16:59.338Z,5.50
2022-11-16T15:19:29.859Z,5.30
2022-11-16T15:21:59.569Z,5.73
2022-11-16T15:24:33.973Z,5.37
2022-11-16T15:27:06.602Z,5.50
2022-11-16T15:29:33.210Z,4.63
2022-11-16T15:31:59.804Z,4.93
2022-11-16T15:34:26.506Z,4.60
2022-11-16T15:36:53.316Z,4.30
2022-11-16T15:39:22.391Z,4.57
2022-11-16T15:41:49.198Z,4.67
2022-11-16T15:44:20.971Z,4.47
2022-11-16T15:46:49.541Z,4.73
2022-11-16T15:49:28.979Z,4.70
2022-11-16T15:51:57.144Z,3.50
2022-11-16T15:54:27.697Z,4.17
2022-11-16T15:56:56.935Z,3.30
2022-11-16T15:59:34.659Z,3.20
2022-11-16T16:02:01.475Z,3.00
2022-11-16T16:04:29.034Z,2.87
2022-11-16T16:06:59.721Z,3.30
2022-11-16T16:09:30.698Z,2.90
2022-11-16T16:12:19.400Z,2.93
2022-11-16T16:14:47.004Z,3.07
2022-11-16T16:17:23.318Z,3.00
2022-11-16T16:19:54.882Z,4.10
2022-11-16T16:22:27.828Z,3.10
2022-11-16T16:24:54.977Z,2.60
2022-11-16T16:27:24.296Z,3.43
2022-11-16T16:29:52.845Z,3.87
2022-11-16T16:32:24.854Z,2.93
2022-11-16T16:34:55.665Z,2.50
2022-11-16T16:37:22.481Z,3.33
2022-11-16T16:39:49.082Z,2.53
2022-11-16T16:42:17.047Z,4.23
2022-11-16T16:44:44.618Z,3.50
2022-11-16T16:47:11.854Z,3.23
2022-11-16T16:49:38.629Z,2.70
2022-11-16T16:52:06.094Z,3.53
2022-11-16T16:54:33.005Z,2.80
2022-11-16T16:57:01.517Z,2.70
2022-11-16T16:59:30.037Z,3.23
2022-11-16T17:01:57.678Z,2.80
2022-11-16T17:04:24.611Z,3.13
2022-11-16T17:06:52.051Z,3.70
2022-11-16T17:09:21.136Z,3.03
2022-11-16T17:11:47.823Z,2.80
2022-11-16T17:14:14.533Z,3.20
2022-11-16T17:16:41.351Z,3.00
2022-11-16T17:19:08.001Z,3.30
2022-11-16T17:21:34.620Z,2.70
2022-11-16T17:24:01.267Z,3.10
2022-11-16T17:26:29.500Z,2.83
2022-11-16T17:28:57.202Z,2.63
2022-11-16T17:31:25.549Z,2.80
2022-11-16T17:33:52.612Z,3.03
2022-11-16T17:36:19.387Z,3.13
2022-11-16T17:38:46.194Z,2.70
2022-11-16T17:41:14.758Z,2.60
2022-11-16T17:43:42.772Z,3.00
2022-11-16T17:46:14.527Z,2.73
2022-11-16T17:48:43.223Z,3.33
2022-11-16T17:51:11.574Z,2.73
2022-11-16T17:53:39.858Z,3.17
2022-11-16T17:56:07.352Z,2.80
2022-11-16T17:58:34.305Z,2.40
2022-11-16T18:01:01.046Z,2.70
2022-11-16T18:03:28.457Z,2.27
2022-11-16T18:06:15.726Z,2.30
2022-11-16T18:08:43.730Z,2.30
2022-11-16T18:11:15.898Z,3.00
2022-11-16T18:13:43.998Z,2.43
2022-11-16T18:16:15.165Z,2.23
2022-11-16T18:18:46.357Z,2.30
2022-11-16T18:21:20.443Z,2.80
2022-11-16T18:23:48.122Z,2.60
2022-11-16T18:26:21.101Z,2.53
2022-11-16T18:28:48.728Z,3.17
2022-11-16T18:31:18.493Z,2.80
2022-11-16T18:33:45.422Z,2.47
2022-11-16T18:36:12.653Z,2.40
2022-11-16T18:38:39.473Z,2.33
2022-11-16T18:41:06.126Z,1.90
2022-11-16T18:43:34.429Z,2.13
2022-11-16T18:46:01.438Z,2.07
2022-11-16T18:48:28.389Z,1.83
2022-11-16T18:51:02.316Z,2.53
2022-11-16T18:53:30.059Z,2.22
2022-11-16T18:55:58.289Z,1.70
2022-11-16T18:58:49.290Z,2.27
2022-11-16T19:01:14.639Z,2.10
2022-11-16T19:03:41.419Z,2.20
2022-11-16T19:06:09.447Z,2.20
2022-11-16T19:08:37.811Z,1.87
2022-11-16T19:11:13.058Z,2.00
2022-11-16T19:13:41.346Z,2.20
2022-11-16T19:16:09.248Z,2.50
2022-11-16T19:18:36.599Z,2.67
2022-11-16T19:21:08.521Z,1.93
2022-11-16T19:23:39.326Z,1.90
2022-11-16T19:26:06.862Z,2.00
2022-11-16T19:28:38.096Z,3.43
2022-11-16T19:31:12.904Z,2.30
2022-11-16T19:33:40.062Z,2.80
2022-11-16T19:36:16.658Z,2.23
2022-11-16T19:38:45.078Z,2.20
2022-11-16T19:41:13.493Z,2.80
2022-11-16T19:43:40.408Z,2.00
2022-11-16T19:46:12.178Z,2.10
2022-11-16T19:48:39.289Z,2.17
2022-11-16T19:51:14.828Z,2.37
2022-11-16T19:53:41.423Z,2.33
2022-11-16T19:56:10.702Z,2.50
2022-11-16T19:58:38.371Z,2.00
2022-11-16T20:01:07.268Z,2.53
2022-11-16T20:03:34.687Z,2.50
2022-11-16T20:06:10.146Z,2.50
2022-11-16T20:08:38.075Z,2.87
2022-11-16T20:11:18.154Z,3.23
2022-11-16T20:13:44.847Z,2.90
2022-11-16T20:16:12.339Z,3.20
2022-11-16T20:18:40.270Z,2.80
2022-11-16T20:21:07.821Z,2.67
2022-11-16T20:23:35.475Z,3.70
2022-11-16T20:26:07.470Z,2.63
2022-11-16T20:28:36.049Z,3.40
2022-11-16T20:31:05.298Z,3.80
2022-11-16T20:33:33.850Z,3.17
2022-11-16T20:36:08.794Z,3.30
2022-11-16T20:38:36.534Z,2.70
2022-11-16T20:41:17.709Z,3.40
2022-11-16T20:43:44.935Z,3.63
2022-11-16T20:46:13.477Z,3.30
2022-11-16T20:48:40.835Z,3.27
2022-11-16T20:51:08.825Z,2.93
2022-11-16T20:53:35.898Z,3.30
2022-11-16T20:56:04.080Z,3.43
2022-11-16T20:58:31.386Z,3.63
2022-11-16T21:01:19.414Z,3.93
2022-11-16T21:03:46.554Z,3.67
2022-11-16T21:06:13.828Z,3.57
2022-11-16T21:08:40.982Z,3.80
2022-11-16T21:11:16.048Z,3.77
2022-11-16T21:14:02.944Z,3.90
2022-11-16T21:16:30.117Z,4.53
2022-11-16T21:18:56.847Z,3.93
2022-11-16T21:21:24.657Z,4.33
2022-11-16T21:23:55.102Z,4.13
2022-11-16T21:26:24.861Z,4.00
2022-11-16T21:28:56.550Z,3.93
2022-11-16T21:31:28.389Z,3.90
2022-11-16T21:33:56.013Z,3.90
2022-11-16T21:36:25.347Z,4.20
2022-11-16T21:38:52.646Z,3.87
2022-11-16T21:41:20.287Z,4.67
2022-11-16T21:43:47.124Z,4.13
2022-11-16T21:46:19.170Z,3.97
2022-11-16T21:48:47.784Z,3.67
2022-11-16T21:51:18.364Z,4.03
2022-11-16T21:53:45.173Z,4.03
2022-11-16T21:56:14.374Z,3.77
2022-11-16T21:58:41.960Z,4.07
2022-11-16T22:01:09.524Z,3.50
2022-11-16T22:03:36.822Z,4.00
2022-11-16T22:06:31.566Z,4.30
2022-11-16T22:08:58.494Z,4.20
2022-11-16T22:11:25.439Z,3.83
2022-11-16T22:13:53.334Z,4.23
2022-11-16T22:16:21.752Z,4.30
2022-11-16T22:18:48.653Z,4.33
2022-11-16T22:21:15.281Z,4.47
2022-11-16T22:23:42.184Z,4.33
2022-11-16T22:26:14.109Z,4.40
2022-11-16T22:28:41.237Z,4.40
2022-11-16T22:31:15.068Z,4.63
2022-11-16T22:33:42.064Z,4.30
2022-11-16T22:36:10.418Z,4.40
2022-11-16T22:38:37.447Z,4.20
2022-11-16T22:41:04.527Z,4.57
2022-11-16T22:43:32.053Z,4.87
2022-11-16T22:46:00.495Z,4.70
2022-11-16T22:48:37.910Z,4.60
2022-11-16T22:51:14.019Z,4.00
2022-11-16T22:53:40.702Z,4.93
2022-11-16T22:56:08.627Z,4.53
2022-11-16T22:58:36.907Z,4.30
2022-11-16T23:01:04.351Z,4.07
2022-11-16T23:03:31.082Z,4.50
2022-11-16T23:05:58.042Z,4.63
2022-11-16T23:08:27.760Z,4.30
2022-11-16T23:11:20.765Z,4.50
2022-11-16T23:14:06.665Z,3.87
2022-11-16T23:16:36.237Z,4.57
2022-11-16T23:19:03.319Z,4.70
2022-11-16T23:21:56.134Z,4.30
2022-11-16T23:24:41.435Z,4.50
2022-11-16T23:27:27.835Z,4.30
2022-11-16T23:29:55.890Z,4.83
2022-11-16T23:32:22.487Z,5.00
2022-11-16T23:34:49.171Z,4.47
2022-11-16T23:37:15.775Z,4.73
2022-11-16T23:39:42.924Z,4.30
2022-11-16T23:42:28.785Z,4.50
2022-11-16T23:44:55.386Z,4.40
2022-11-16T23:47:22.412Z,4.20
2022-11-16T23:49:49.251Z,4.57
2022-11-16T23:52:15.882Z,4.83
2022-11-16T23:54:42.522Z,5.20
2022-11-16T23:57:09.298Z,5.87
2022-11-16T23:59:35.907Z,5.23
